Time;durP1;ratioP1;P1;durP2;ratioP2;P2;SDS_P1;SDS_P2;PMS_P1;PMS_P2;Temp;Humidity;BMP_temperature;BMP_pressure;BME280_temperature;BME280_humidity;BME280_pressure;Samples;Min_cycle;Max_cycle;Signal;HPM_P1;HPM_P2
2022/10/29 00:00:55;;;;;;;16.77;10.50;;;;;;;12.20;69.53;100687.56;5055418;28;20192;-69
2022/10/29 00:03:22;;;;;;;26.77;10.27;;;;;;;12.08;70.32;100691.63;5055201;28;20200;-69
2022/10/29 00:06:01;;;;;;;19.67;10.77;;;;;;;12.03;70.80;100687.84;5055287;28;20202;-69
2022/10/29 00:08:29;;;;;;;14.20;10.17;;;;;;;11.97;70.23;100692.03;5054965;28;20182;-69
2022/10/29 00:11:04;;;;;;;19.50;10.10;;;;;;;11.98;70.70;100693.69;5055110;28;20195;-69
2022/10/29 00:13:30;;;;;;;18.20;10.43;;;;;;;11.99;70.04;100698.00;5065746;28;20243;-69
2022/10/29 00:15:57;;;;;;;18.50;10.97;;;;;;;11.93;70.54;100688.09;5074775;28;20306;-69
2022/10/29 00:18:24;;;;;;;19.63;9.63;;;;;;;11.85;70.24;100685.47;5075636;28;20257;-69
2022/10/29 00:21:01;;;;;;;16.10;10.10;;;;;;;11.90;70.42;100696.41;5075090;28;20197;-69
2022/10/29 00:23:28;;;;;;;14.13;9.70;;;;;;;11.93;69.75;100697.88;5075240;28;20610;-69
2022/10/29 00:25:56;;;;;;;14.60;10.00;;;;;;;11.90;70.32;100692.91;5074880;28;20197;-69
2022/10/29 00:28:23;;;;;;;15.93;10.87;;;;;;;11.89;70.83;100696.59;5073249;28;20198;-69
2022/10/29 00:30:49;;;;;;;21.43;10.80;;;;;;;11.87;70.78;100696.75;5054770;28;20195;-69
2022/10/29 00:33:17;;;;;;;17.53;11.13;;;;;;;11.88;70.49;100685.09;5055637;28;20190;-69
2022/10/29 00:35:53;;;;;;;14.70;10.27;;;;;;;11.86;71.41;100676.47;5054612;28;20195;-69
2022/10/29 00:38:22;;;;;;;15.53;10.00;;;;;;;11.85;71.00;100688.13;5054718;28;20190;-69
2022/10/29 00:40:48;;;;;;;15.13;11.00;;;;;;;11.84;71.44;100675.78;5054233;28;20735;-69
2022/10/29 00:43:17;;;;;;;12.07;10.73;;;;;;;11.80;72.38;100677.16;5055389;28;20256;-70
2022/10/29 00:45:48;;;;;;;15.77;10.03;;;;;;;11.76;71.91;100670.53;5054492;28;20244;-70
2022/10/29 00:48:14;;;;;;;12.07;10.60;;;;;;;11.80;71.78;100671.03;5055441;28;20185;-70
2022/10/29 00:50:41;;;;;;;14.37;10.47;;;;;;;11.82;71.34;100680.47;5054371;28;20191;-70
2022/10/29 00:53:08;;;;;;;17.23;10.47;;;;;;;11.83;71.14;100671.50;5053813;28;20675;-70
2022/10/29 00:55:37;;;;;;;18.80;10.27;;;;;;;11.85;70.70;100668.66;5054404;28;20195;-69
2022/10/29 00:58:04;;;;;;;12.67;10.37;;;;;;;11.78;70.62;100668.53;5054046;28;20250;-69
2022/10/29 01:00:31;;;;;;;16.43;10.67;;;;;;;11.67;70.58;100666.25;5054125;28;20195;-69
2022/10/29 01:02:57;;;;;;;16.37;9.93;;;;;;;11.69;71.02;100661.59;5054178;28;20252;-69
2022/10/29 01:05:25;;;;;;;18.20;10.53;;;;;;;11.68;71.01;100672.41;5054155;28;20199;-69
2022/10/29 01:07:52;;;;;;;14.97;10.47;;;;;;;11.61;71.24;100658.97;5053841;28;20204;-69
2022/10/29 01:10:31;;;;;;;13.07;9.90;;;;;;;11.55;71.57;100662.28;5053713;28;20659;-69
2022/10/29 01:13:17;;;;;;;13.13;10.80;;;;;;;11.57;71.06;100665.63;5061265;28;20226;-69
2022/10/29 01:15:52;;;;;;;14.90;10.47;;;;;;;11.46;71.69;100663.31;5073764;28;20251;-69
2022/10/29 01:18:24;;;;;;;25.13;10.27;;;;;;;11.46;72.00;100660.66;5074285;28;20271;-68
2022/10/29 01:21:14;;;;;;;15.57;10.33;;;;;;;11.49;71.66;100656.81;5073545;28;20237;-69
2022/10/29 01:24:11;;;;;;;15.30;10.43;;;;;;;11.51;71.93;100650.31;5073603;28;20658;-69
2022/10/29 01:27:02;;;;;;;20.40;10.07;;;;;;;11.51;71.82;100658.31;5074373;28;20250;-69
2022/10/29 01:29:43;;;;;;;15.63;10.13;;;;;;;11.49;72.39;100657.66;5063313;28;20188;-69
2022/10/29 01:32:13;;;;;;;28.03;10.97;;;;;;;11.44;72.26;100644.06;5053852;28;20202;-69
2022/10/29 01:34:49;;;;;;;22.23;10.33;;;;;;;11.47;72.28;100643.69;5054332;28;20243;-69
2022/10/29 01:37:21;;;;;;;14.47;10.20;;;;;;;11.52;72.58;100640.53;5054129;28;20264;-69
2022/10/29 01:39:54;;;;;;;21.00;10.77;;;;;;;11.50;72.46;100638.03;5053425;28;20650;-69
2022/10/29 01:42:26;;;;;;;18.17;9.77;;;;;;;11.41;73.14;100649.72;5053799;28;20611;-69
2022/10/29 01:44:59;;;;;;;14.13;9.53;;;;;;;11.30;73.56;100639.44;5053073;28;20620;-68
2022/10/29 01:47:31;;;;;;;19.70;9.93;;;;;;;11.36;73.29;100641.44;5053804;28;20559;-69
2022/10/29 01:50:02;;;;;;;21.10;9.13;;;;;;;11.38;73.14;100643.91;5053949;28;20187;-68
2022/10/29 01:52:34;;;;;;;18.10;9.97;;;;;;;11.35;73.03;100638.94;5054135;28;20249;-68
2022/10/29 01:55:02;;;;;;;17.10;10.30;;;;;;;11.31;73.53;100643.75;5052968;28;20236;-68
2022/10/29 01:57:32;;;;;;;26.60;11.90;;;;;;;11.29;73.07;100640.47;5052777;28;20280;-69
2022/10/29 02:00:02;;;;;;;41.43;13.07;;;;;;;11.24;73.86;100632.19;5053521;28;20199;-68
2022/10/29 02:02:45;;;;;;;36.17;12.30;;;;;;;11.13;74.12;100637.84;5053340;28;20201;-69
2022/10/29 02:05:26;;;;;;;24.90;12.17;;;;;;;11.03;73.99;100634.59;5052988;28;20190;-69
2022/10/29 02:07:57;;;;;;;12.83;10.87;;;;;;;10.94;73.79;100640.91;5053580;28;20193;-69
2022/10/29 02:10:32;;;;;;;14.47;10.90;;;;;;;10.81;73.89;100636.13;5052604;28;20182;-69
2022/10/29 02:13:00;;;;;;;20.97;12.27;;;;;;;10.90;74.22;100634.25;5059727;28;20221;-69
2022/10/29 02:15:32;;;;;;;14.27;10.97;;;;;;;10.90;73.45;100637.75;5072897;28;20635;-69
2022/10/29 02:18:02;;;;;;;22.77;12.37;;;;;;;10.82;73.44;100639.59;5072766;28;20213;-69
2022/10/29 02:20:29;;;;;;;17.43;12.27;;;;;;;10.68;73.12;100635.00;5072674;28;20197;-69
2022/10/29 02:22:56;;;;;;;17.47;11.67;;;;;;;10.60;73.86;100637.66;5072375;28;20742;-69
2022/10/29 02:25:23;;;;;;;14.47;12.73;;;;;;;10.44;74.35;100633.19;5072313;28;20262;-69
2022/10/29 02:27:50;;;;;;;17.33;12.03;;;;;;;10.34;74.17;100631.72;5072310;28;20201;-69
2022/10/29 02:30:17;;;;;;;14.20;11.87;;;;;;;10.30;73.76;100633.03;5054989;28;20254;-69
2022/10/29 02:32:44;;;;;;;16.70;12.60;;;;;;;10.26;74.64;100626.41;5052244;28;20197;-69
2022/10/29 02:35:12;;;;;;;13.17;11.47;;;;;;;10.18;74.56;100623.75;5052436;28;20193;-68
2022/10/29 02:37:38;;;;;;;16.07;11.67;;;;;;;10.08;74.45;100625.72;5052078;28;20222;-68
2022/10/29 02:40:06;;;;;;;24.30;12.63;;;;;;;10.04;74.76;100625.19;5052496;28;20247;-69
2022/10/29 02:42:33;;;;;;;18.23;11.80;;;;;;;10.02;75.73;100615.75;5053229;28;20200;-69
2022/10/29 02:44:59;;;;;;;12.40;11.03;;;;;;;9.98;75.50;100625.03;5052393;28;20250;-69
2022/10/29 02:47:26;;;;;;;15.03;11.17;;;;;;;9.99;75.27;100634.66;5051953;28;20197;-69
2022/10/29 02:49:53;;;;;;;15.23;11.97;;;;;;;9.91;75.38;100629.31;5052024;28;20676;-70
2022/10/29 02:52:21;;;;;;;15.07;11.07;;;;;;;9.82;76.47;100625.84;5052230;28;20249;-69
2022/10/29 02:54:48;;;;;;;19.97;10.73;;;;;;;9.77;77.03;100622.00;5051911;28;20498;-70
2022/10/29 02:57:14;;;;;;;14.17;10.97;;;;;;;9.76;77.21;100630.97;5052087;28;20220;-70
2022/10/29 02:59:41;;;;;;;12.73;10.10;;;;;;;9.75;76.92;100646.06;5051838;28;20742;-70
2022/10/29 03:02:08;;;;;;;16.33;10.40;;;;;;;9.76;77.67;100638.94;5063927;28;20245;-70
2022/10/29 03:04:34;;;;;;;11.17;9.77;;;;;;;9.75;77.75;100642.56;5079673;28;20192;-69
2022/10/29 03:07:03;;;;;;;18.30;9.37;;;;;;;9.79;77.46;100641.25;5091961;28;20199;-68
2022/10/29 03:09:31;;;;;;;10.27;9.17;;;;;;;9.78;77.33;100642.25;5092222;28;20253;-68
2022/10/29 03:11:57;;;;;;;18.27;10.40;;;;;;;9.78;78.16;100635.13;5091813;28;20759;-69
2022/10/29 03:14:24;;;;;;;11.37;9.33;;;;;;;9.76;77.81;100621.19;5073720;28;20204;-68
2022/10/29 03:16:51;;;;;;;12.93;9.17;;;;;;;9.89;77.50;100628.66;5073447;28;20312;-68
2022/10/29 03:19:17;;;;;;;9.17;8.30;;;;;;;10.01;76.98;100625.50;5075832;28;20249;-69
2022/10/29 03:21:44;;;;;;;9.67;8.57;;;;;;;10.08;76.69;100625.72;5075614;28;20192;-70
2022/10/29 03:24:11;;;;;;;9.30;8.30;;;;;;;10.16;76.49;100628.38;5075636;28;20706;-69
2022/10/29 03:26:39;;;;;;;14.60;8.27;;;;;;;10.20;75.74;100635.03;5075819;28;20250;-69
2022/10/29 03:29:05;;;;;;;15.57;8.87;;;;;;;10.18;75.92;100637.03;5068213;28;20665;-69
2022/10/29 03:31:32;;;;;;;12.73;7.97;;;;;;;10.09;76.18;100633.53;5055358;28;20188;-69
2022/10/29 03:33:59;;;;;;;10.53;9.20;;;;;;;10.08;76.89;100636.34;5055517;28;20193;-69
2022/10/29 03:36:26;;;;;;;8.97;8.10;;;;;;;10.08;76.96;100623.06;5056144;28;20200;-69
2022/10/29 03:38:52;;;;;;;9.93;8.73;;;;;;;10.16;76.05;100631.03;5056205;28;20265;-69
2022/10/29 03:41:19;;;;;;;12.73;9.00;;;;;;;10.19;75.63;100623.59;5055523;28;20197;-68
2022/10/29 03:43:47;;;;;;;9.30;8.40;;;;;;;10.25;75.96;100622.09;5055411;28;20254;-68
2022/10/29 03:46:14;;;;;;;8.73;7.90;;;;;;;10.26;75.47;100618.44;5056016;28;20193;-69
2022/10/29 03:48:40;;;;;;;11.13;8.57;;;;;;;10.30;75.13;100625.06;5055616;28;20259;-69
2022/10/29 03:51:07;;;;;;;11.83;9.30;;;;;;;10.30;74.88;100619.75;5055464;28;20189;-69
2022/10/29 03:53:35;;;;;;;11.50;8.50;;;;;;;10.20;74.62;100592.53;5055543;28;20284;-69
2022/10/29 03:56:02;;;;;;;37.70;10.20;;;;;;;10.30;75.02;100614.44;5055524;28;20251;-69
2022/10/29 03:58:29;;;;;;;13.67;8.83;;;;;;;10.29;74.94;100608.31;5055327;28;20310;-69
2022/10/29 04:00:59;;;;;;;11.30;8.77;;;;;;;10.30;75.37;100611.78;5055111;28;20193;-69
2022/10/29 04:03:26;;;;;;;10.47;8.17;;;;;;;10.20;75.42;100613.78;5055234;28;20626;-69
2022/10/29 04:05:53;;;;;;;22.43;8.83;;;;;;;10.17;75.68;100624.75;5055013;28;20625;-69
2022/10/29 04:08:20;;;;;;;12.30;7.83;;;;;;;10.08;75.82;100623.06;5054872;28;20197;-68
2022/10/29 04:10:47;;;;;;;19.03;9.57;;;;;;;10.09;76.03;100620.25;5055151;28;20190;-69
2022/10/29 04:13:14;;;;;;;19.63;8.07;;;;;;;10.16;76.07;100612.44;5063638;28;20249;-68
2022/10/29 04:15:41;;;;;;;10.43;7.80;;;;;;;10.16;75.80;100623.06;5075040;28;20792;-68
2022/10/29 04:18:10;;;;;;;13.67;7.80;;;;;;;10.17;75.69;100619.44;5074601;28;20661;-69
2022/10/29 04:20:37;;;;;;;28.10;8.00;;;;;;;10.17;75.36;100608.81;5075039;28;20250;-69
2022/10/29 04:23:04;;;;;;;22.07;8.27;;;;;;;10.20;75.53;100611.97;5074603;28;20204;-68
2022/10/29 04:25:31;;;;;;;10.17;8.07;;;;;;;10.17;75.53;100608.81;5074974;28;20193;-69
2022/10/29 04:27:58;;;;;;;11.77;8.33;;;;;;;10.19;75.37;100617.44;5073711;28;20200;-69
2022/10/29 04:30:25;;;;;;;11.57;7.60;;;;;;;10.22;75.34;100622.41;5056228;28;20194;-69
2022/10/29 04:32:56;;;;;;;13.30;8.57;;;;;;;10.24;75.66;100620.41;5054853;28;20197;-69
2022/10/29 04:35:24;;;;;;;11.20;8.07;;;;;;;10.24;75.22;100615.09;5055474;28;20238;-69
2022/10/29 04:37:50;;;;;;;12.07;7.73;;;;;;;10.23;75.34;100621.41;5054245;28;20222;-69
2022/10/29 04:40:17;;;;;;;11.70;7.73;;;;;;;10.19;75.31;100612.13;5054312;28;20672;-68
2022/10/29 04:42:44;;;;;;;12.23;8.10;;;;;;;10.17;75.12;100614.13;5054499;28;20656;-68
2022/10/29 04:45:10;;;;;;;11.40;8.20;;;;;;;10.10;76.03;100616.59;5054626;28;20193;-68
2022/10/29 04:47:37;;;;;;;14.27;7.97;;;;;;;10.05;76.04;100620.75;5054137;28;20197;-69
2022/10/29 04:50:04;;;;;;;20.17;11.43;;;;;;;9.91;76.90;100618.72;5054474;28;20668;-69
2022/10/29 04:52:33;;;;;;;26.97;14.97;;;;;;;9.82;76.73;100625.84;5054013;28;20246;-69
2022/10/29 04:54:59;;;;;;;24.57;12.33;;;;;;;9.74;76.32;100627.63;5054152;28;20197;-69
2022/10/29 04:57:26;;;;;;;29.67;14.30;;;;;;;9.66;77.15;100627.63;5056057;28;20592;-69
2022/10/29 04:59:53;;;;;;;41.03;20.53;;;;;;;9.63;77.16;100634.09;5074203;28;20195;-69
2022/10/29 05:02:19;;;;;;;32.33;17.97;;;;;;;9.63;77.68;100630.59;5074221;28;20188;-69
2022/10/29 05:04:46;;;;;;;23.43;15.80;;;;;;;9.58;77.56;100632.91;5060860;28;20246;-68
2022/10/29 05:07:12;;;;;;;17.97;11.67;;;;;;;9.48;77.63;100638.34;5054099;28;20256;-70
2022/10/29 05:09:41;;;;;;;16.87;10.93;;;;;;;9.40;78.03;100640.16;5068705;28;20192;-71
2022/10/29 05:12:08;;;;;;;17.53;9.67;;;;;;;9.34;77.52;100644.28;5074144;28;20228;-70
2022/10/29 05:14:35;;;;;;;13.90;9.50;;;;;;;9.38;78.83;100653.56;5073332;28;20275;-70
2022/10/29 05:17:02;;;;;;;19.83;12.17;;;;;;;9.42;77.79;100648.78;5073256;28;20192;-69
2022/10/29 05:19:28;;;;;;;18.10;11.30;;;;;;;9.49;77.84;100649.78;5072912;28;20655;-71
2022/10/29 05:21:55;;;;;;;12.63;9.10;;;;;;;9.64;77.48;100653.50;5073384;28;20234;-71
2022/10/29 05:24:22;;;;;;;11.50;8.50;;;;;;;9.82;77.99;100648.88;5073616;28;20196;-73
2022/10/29 05:26:50;;;;;;;19.30;11.87;;;;;;;10.31;76.01;100651.47;5073303;28;20266;-72
2022/10/29 05:29:16;;;;;;;39.63;23.80;;;;;;;10.66;73.14;100659.06;5073492;28;20191;-69
2022/10/29 05:31:43;;;;;;;35.33;24.23;;;;;;;10.88;72.60;100663.69;5061673;28;20207;-71
2022/10/29 05:34:10;;;;;;;35.07;21.33;;;;;;;11.01;71.34;100660.50;5052793;28;20549;-70
2022/10/29 05:36:36;;;;;;;22.73;14.87;;;;;;;11.13;71.05;100667.13;5055537;28;20263;-70
2022/10/29 05:39:03;;;;;;;16.13;9.70;;;;;;;11.41;70.17;100668.34;5052539;28;20216;-71
2022/10/29 05:41:30;;;;;;;20.87;9.43;;;;;;;11.82;68.51;100669.84;5050671;28;20262;-69
2022/10/29 05:43:58;;;;;;;15.93;9.47;;;;;;;12.04;67.54;100673.53;5061434;28;20190;-70
2022/10/29 05:46:25;;;;;;;15.23;8.57;;;;;;;12.11;66.62;100683.28;5062053;28;20247;-71
2022/10/29 05:48:51;;;;;;;9.10;8.20;;;;;;;12.17;66.61;100679.91;5072458;28;20628;-73
2022/10/29 05:51:18;;;;;;;16.80;9.40;;;;;;;12.22;66.57;100684.72;5057470;28;20245;-73
2022/10/29 05:53:45;;;;;;;10.07;8.30;;;;;;;12.46;65.44;100688.00;5051500;28;20195;-74
2022/10/29 05:56:11;;;;;;;22.67;9.40;;;;;;;12.75;65.65;100685.44;5052458;28;20250;-73
2022/10/29 05:58:38;;;;;;;15.27;9.20;;;;;;;13.15;63.80;100685.06;5057320;28;20208;-73
2022/10/29 06:01:08;;;;;;;15.40;7.70;;;;;;;13.42;62.05;100692.44;5073572;28;20241;-68
2022/10/29 06:03:34;;;;;;;10.87;7.63;;;;;;;13.33;62.82;100690.88;5072558;28;20192;-69
2022/10/29 06:06:01;;;;;;;12.97;9.70;;;;;;;13.43;62.66;100691.41;5072288;28;20248;-67
2022/10/29 06:08:28;;;;;;;12.43;9.40;;;;;;;13.83;62.81;100706.91;5072215;28;20257;-69
2022/10/29 06:10:55;;;;;;;17.63;10.40;;;;;;;13.95;60.77;100713.44;5072323;28;20184;-69
2022/10/29 06:13:22;;;;;;;10.10;6.93;;;;;;;14.02;62.01;100718.84;5072103;28;20644;-69
2022/10/29 06:15:56;;;;;;;17.47;8.13;;;;;;;14.07;60.45;100716.44;5066527;28;20189;-69
2022/10/29 06:18:24;;;;;;;12.43;7.90;;;;;;;14.38;59.02;100709.00;5052395;28;20646;-69
2022/10/29 06:20:51;;;;;;;13.00;7.50;;;;;;;14.39;59.70;100716.84;5051906;28;20196;-68
2022/10/29 06:23:17;;;;;;;13.67;7.53;;;;;;;15.30;58.84;100712.22;5050721;28;20243;-66
2022/10/29 06:25:44;;;;;;;13.60;7.23;;;;;;;16.37;60.98;100699.88;5051249;28;20579;-65
2022/10/29 06:28:13;;;;;;;12.83;6.90;;;;;;;17.54;54.79;100715.97;5052082;28;20282;-65
2022/10/29 06:30:41;;;;;;;18.07;7.17;;;;;;;18.52;48.85;100705.59;5051980;28;20200;-63
2022/10/29 06:33:08;;;;;;;12.13;6.90;;;;;;;18.89;46.94;100710.91;5052058;28;20201;-63
2022/10/29 06:35:36;;;;;;;9.77;6.17;;;;;;;19.03;46.98;100698.94;5051476;28;20198;-63
2022/10/29 06:38:03;;;;;;;6.53;5.60;;;;;;;19.51;46.50;100701.78;5051745;28;20218;-63
2022/10/29 06:40:30;;;;;;;23.27;7.10;;;;;;;19.81;42.68;100702.72;5051618;28;20287;-63
2022/10/29 06:43:00;;;;;;;21.33;6.87;;;;;;;20.46;41.49;100697.25;5050265;28;20200;-64
2022/10/29 06:45:27;;;;;;;8.83;6.70;;;;;;;20.40;42.18;100686.56;5048889;28;20193;-63
2022/10/29 06:47:54;;;;;;;11.07;6.87;;;;;;;20.78;41.07;100689.66;5047926;28;20199;-65
2022/10/29 06:50:21;;;;;;;14.47;8.70;;;;;;;21.11;39.30;100695.34;5048639;28;20252;-62
2022/10/29 06:52:55;;;;;;;12.10;7.83;;;;;;;21.49;38.23;100690.28;5050934;28;20326;-62
2022/10/29 06:55:22;;;;;;;23.20;12.63;;;;;;;21.76;36.64;100699.53;5049130;28;20227;-62
2022/10/29 06:57:56;;;;;;;8.13;7.27;;;;;;;21.39;39.70;100697.38;5047641;28;20216;-65
2022/10/29 07:00:23;;;;;;;6.70;5.83;;;;;;;20.74;38.18;100687.69;5048353;28;20200;-64
2022/10/29 07:02:49;;;;;;;15.10;5.83;;;;;;;20.99;40.28;100694.53;5049696;28;20192;-62
2022/10/29 07:05:16;;;;;;;5.30;5.00;;;;;;;20.90;38.22;100698.59;5051644;28;20247;-63
2022/10/29 07:07:43;;;;;;;5.33;4.83;;;;;;;20.69;40.81;100685.66;5051007;28;20267;-63
2022/10/29 07:10:11;;;;;;;7.87;5.17;;;;;;;21.08;40.17;100679.63;5051009;28;20188;-63
2022/10/29 07:12:40;;;;;;;8.17;4.50;;;;;;;21.65;40.12;100692.28;5054325;28;20284;-63
2022/10/29 07:15:09;;;;;;;10.83;5.90;;;;;;;21.89;39.34;100688.44;5072003;28;20203;-64
2022/10/29 07:17:35;;;;;;;11.23;6.90;;;;;;;22.30;39.36;100690.06;5071326;28;20269;-63
2022/10/29 07:20:03;;;;;;;14.40;6.93;;;;;;;22.63;37.32;100679.28;5071373;28;20192;-64
2022/10/29 07:22:29;;;;;;;6.23;5.60;;;;;;;22.02;39.74;100680.06;5070998;28;20214;-64
2022/10/29 07:24:56;;;;;;;5.40;4.90;;;;;;;21.67;37.73;100679.31;5071477;28;20187;-62
2022/10/29 07:27:24;;;;;;;10.87;5.63;;;;;;;21.54;37.65;100678.75;5070990;28;20257;-63
2022/10/29 07:29:51;;;;;;;5.53;5.00;;;;;;;21.32;37.57;100680.44;5057293;28;20669;-63
2022/10/29 07:32:17;;;;;;;6.30;5.77;;;;;;;21.58;38.47;100675.34;5051725;28;20197;-63
2022/10/29 07:34:44;;;;;;;12.10;5.43;;;;;;;21.83;38.25;100670.47;5051632;28;20326;-63
2022/10/29 07:37:11;;;;;;;8.07;5.50;;;;;;;22.27;39.70;100674.28;5051710;28;20262;-64
2022/10/29 07:39:37;;;;;;;6.30;4.90;;;;;;;22.79;37.21;100679.28;5051119;28;20281;-64
2022/10/29 07:42:04;;;;;;;9.53;5.03;;;;;;;22.96;36.11;100680.13;5050815;28;20315;-63
2022/10/29 07:44:32;;;;;;;6.67;5.00;;;;;;;22.13;36.45;100672.97;5064454;28;20257;-65
2022/10/29 07:47:01;;;;;;;9.30;6.57;;;;;;;21.55;37.64;100659.59;5077862;28;20268;-64
2022/10/29 07:49:27;;;;;;;10.33;9.03;;;;;;;21.59;38.27;100663.47;5088040;28;20674;-65
2022/10/29 07:51:54;;;;;;;9.33;5.70;;;;;;;21.84;38.55;100655.88;5068545;28;20188;-65
2022/10/29 07:54:21;;;;;;;6.00;5.53;;;;;;;22.40;38.19;100658.56;5071075;28;20192;-64
2022/10/29 07:56:47;;;;;;;8.37;5.70;;;;;;;22.71;35.17;100668.06;5070999;28;20200;-64
2022/10/29 07:59:16;;;;;;;9.00;4.90;;;;;;;22.79;34.60;100675.78;5070682;28;20220;-64
2022/10/29 08:01:44;;;;;;;5.07;4.77;;;;;;;22.51;35.15;100673.97;5070666;28;20204;-65
2022/10/29 08:04:12;;;;;;;7.67;4.70;;;;;;;22.90;36.19;100667.53;5072417;28;20188;-65
2022/10/29 08:06:39;;;;;;;5.57;4.90;;;;;;;23.44;35.19;100666.72;5074932;28;20192;-65
2022/10/29 08:09:06;;;;;;;10.33;5.00;;;;;;;23.85;34.27;100668.88;5074218;28;20200;-64
2022/10/29 08:11:33;;;;;;;5.67;4.80;;;;;;;24.20;33.29;100661.16;5074194;28;20259;-65
2022/10/29 08:14:00;;;;;;;5.20;4.80;;;;;;;23.55;33.21;100662.25;5074448;28;20193;-64
2022/10/29 08:16:26;;;;;;;8.23;7.37;;;;;;;23.63;33.75;100662.66;5074490;28;20193;-64
2022/10/29 08:18:54;;;;;;;24.77;5.87;;;;;;;23.96;33.06;100664.41;5071595;28;20233;-66
2022/10/29 08:21:21;;;;;;;12.80;5.53;;;;;;;24.03;33.91;100655.00;5073315;28;20646;-65
2022/10/29 08:23:48;;;;;;;9.37;5.33;;;;;;;24.00;33.22;100655.50;5074657;28;20197;-65
2022/10/29 08:26:14;;;;;;;9.00;5.47;;;;;;;24.05;33.28;100647.41;5074617;28;20285;-67
2022/10/29 08:28:44;;;;;;;7.90;4.93;;;;;;;24.15;33.23;100655.69;5073907;28;20198;-67
2022/10/29 08:31:11;;;;;;;6.00;5.40;;;;;;;23.31;34.11;100650.81;5074821;28;20198;-66
2022/10/29 08:33:38;;;;;;;6.33;5.67;;;;;;;23.14;34.40;100639.19;5074299;28;20192;-67
2022/10/29 08:36:07;;;;;;;7.23;5.60;;;;;;;23.26;34.53;100641.81;5073901;28;20242;-67
2022/10/29 08:38:33;;;;;;;5.80;5.30;;;;;;;23.40;34.57;100643.88;5072604;28;20805;-67
2022/10/29 08:41:17;;;;;;;7.73;5.63;;;;;;;23.62;33.73;100636.59;5074144;28;20625;-67
2022/10/29 08:44:46;;;;;;;6.00;5.50;;;;;;;23.45;33.76;100646.69;5073963;28;20250;-67
2022/10/29 08:47:17;;;;;;;9.97;6.23;;;;;;;23.05;34.67;100632.53;5074114;28;20631;-67
2022/10/29 08:49:48;;;;;;;10.20;7.27;;;;;;;22.83;35.43;100631.66;5074985;28;20214;-66
2022/10/29 08:52:23;;;;;;;12.20;6.60;;;;;;;22.62;35.95;100627.00;5073905;28;20188;-67
2022/10/29 08:54:54;;;;;;;8.17;6.20;;;;;;;22.93;35.29;100637.25;5073868;28;20187;-67
2022/10/29 08:57:23;;;;;;;7.07;6.20;;;;;;;23.03;34.50;100629.25;5074189;28;20245;-67
2022/10/29 09:00:03;;;;;;;5.53;5.03;;;;;;;22.95;34.69;100621.53;5073723;28;20662;-67
2022/10/29 09:02:30;;;;;;;7.27;5.60;;;;;;;22.87;34.59;100627.38;5073668;28;20275;-67
2022/10/29 09:04:57;;;;;;;13.30;5.73;;;;;;;23.08;34.87;100623.09;5074550;28;20200;-67
2022/10/29 09:07:46;;;;;;;10.90;5.30;;;;;;;22.85;35.53;100613.28;5073470;28;20204;-67
2022/10/29 09:10:25;;;;;;;7.50;5.10;;;;;;;22.98;35.53;100618.34;5074191;28;20261;-67
2022/10/29 09:13:09;;;;;;;10.77;4.67;;;;;;;23.20;34.67;100608.38;5074025;28;20215;-67
2022/10/29 09:15:59;;;;;;;5.80;5.27;;;;;;;23.25;34.24;100607.63;5073219;28;20193;-67
2022/10/29 09:18:44;;;;;;;32.23;7.00;;;;;;;23.39;34.07;100598.88;5073470;28;20618;-67
2022/10/29 09:21:23;;;;;;;17.57;5.80;;;;;;;23.41;34.05;100596.72;5073283;28;20266;-67
2022/10/29 09:24:00;;;;;;;11.57;5.33;;;;;;;23.05;34.61;100591.88;5073359;28;20644;-66
2022/10/29 09:26:31;;;;;;;10.20;5.37;;;;;;;23.17;35.26;100583.63;5073330;28;20607;-67
2022/10/29 09:29:36;;;;;;;8.57;4.63;;;;;;;23.24;34.15;100585.09;5073402;28;20188;-67
2022/10/29 09:32:05;;;;;;;9.00;5.40;;;;;;;23.28;34.18;100591.66;5066662;28;20192;-67
2022/10/29 09:34:40;;;;;;;58.33;10.10;;;;;;;23.43;34.08;100583.72;5073356;28;20237;-67
2022/10/29 09:37:15;;;;;;;5.67;5.27;;;;;;;23.51;33.89;100587.88;5073708;28;20189;-67
2022/10/29 09:39:46;;;;;;;5.63;5.03;;;;;;;23.76;33.66;100577.31;5072972;28;20300;-67
2022/10/29 09:42:16;;;;;;;8.93;5.33;;;;;;;23.71;33.63;100569.94;5073563;28;20190;-66
2022/10/29 09:44:50;;;;;;;6.90;4.97;;;;;;;23.84;33.32;100577.69;5073663;28;20190;-67
2022/10/29 09:47:25;;;;;;;6.97;5.03;;;;;;;23.79;33.40;100564.06;5073280;28;20245;-67
2022/10/29 09:50:05;;;;;;;10.43;5.33;;;;;;;23.87;33.15;100563.59;5072918;28;20265;-67
2022/10/29 09:52:35;;;;;;;4.77;4.47;;;;;;;24.04;32.78;100548.03;5072785;28;20596;-67
2022/10/29 09:55:06;;;;;;;5.23;4.53;;;;;;;24.18;32.20;100549.25;5073049;28;20198;-67
2022/10/29 09:57:36;;;;;;;7.37;4.20;;;;;;;24.00;32.54;100544.22;5072712;28;20240;-67
2022/10/29 10:00:06;;;;;;;6.10;4.63;;;;;;;23.85;32.87;100538.59;5072836;28;20604;-67
2022/10/29 10:02:36;;;;;;;15.40;5.00;;;;;;;24.03;32.89;100535.56;5073217;28;20251;-67
2022/10/29 10:05:06;;;;;;;6.23;5.23;;;;;;;23.86;32.80;100537.53;5072561;28;20508;-67
2022/10/29 10:07:33;;;;;;;4.20;3.90;;;;;;;23.76;32.93;100532.00;5072634;28;20196;-67
2022/10/29 10:10:01;;;;;;;4.10;3.80;;;;;;;23.38;32.85;100531.31;5072817;28;20254;-67
2022/10/29 10:12:44;;;;;;;6.80;3.67;;;;;;;23.36;33.28;100523.44;5072127;28;20281;-67
2022/10/29 10:15:19;;;;;;;9.27;3.47;;;;;;;23.36;32.96;100514.50;5072443;28;20632;-67
2022/10/29 10:18:01;;;;;;;8.87;3.87;;;;;;;23.60;33.35;100516.63;5072215;28;20243;-67
2022/10/29 10:20:34;;;;;;;4.27;3.70;;;;;;;23.83;32.75;100512.78;5072146;28;20580;-67
2022/10/29 10:23:01;;;;;;;21.37;3.90;;;;;;;23.94;32.57;100509.13;5072083;28;20181;-67
2022/10/29 10:25:33;;;;;;;5.67;3.53;;;;;;;23.82;32.82;100498.41;5072299;28;20258;-65
2022/10/29 10:28:14;;;;;;;8.23;3.87;;;;;;;23.92;32.84;100494.97;5072304;28;20182;-65
2022/10/29 10:30:42;;;;;;;5.53;3.53;;;;;;;24.03;32.47;100496.72;5052085;28;20225;-67
2022/10/29 10:33:23;;;;;;;6.07;3.50;;;;;;;24.17;31.78;100490.59;5051914;28;20198;-65
2022/10/29 10:35:49;;;;;;;8.50;3.87;;;;;;;24.32;31.74;100479.84;5052038;28;20187;-65
2022/10/29 10:38:16;;;;;;;5.23;3.20;;;;;;;24.43;31.80;100480.72;5052147;28;20199;-65
2022/10/29 10:40:43;;;;;;;3.33;3.13;;;;;;;24.45;31.62;100473.94;5051936;28;20222;-67
2022/10/29 10:43:20;;;;;;;10.20;3.90;;;;;;;24.59;31.52;100471.56;5052216;28;20576;-65
2022/10/29 10:45:55;;;;;;;4.67;3.43;;;;;;;24.74;31.18;100464.34;5052425;28;20283;-65
2022/10/29 10:48:24;;;;;;;5.27;3.00;;;;;;;24.76;31.31;100464.09;5052180;28;20212;-68
2022/10/29 10:50:51;;;;;;;3.63;3.37;;;;;;;24.59;30.71;100447.13;5052234;28;20209;-75
2022/10/29 10:53:20;;;;;;;10.20;3.73;;;;;;;24.68;31.56;100448.28;5051586;28;20255;-71
2022/10/29 10:55:50;;;;;;;4.00;3.50;;;;;;;24.66;30.54;100450.44;5052231;28;20195;-71
2022/10/29 10:58:25;;;;;;;6.50;2.97;;;;;;;24.69;31.81;100444.47;5051941;28;20258;-71
2022/10/29 11:00:58;;;;;;;5.27;3.00;;;;;;;24.79;32.68;100436.38;5052396;28;20272;-74
2022/10/29 11:03:32;;;;;;;6.43;4.33;;;;;;;24.92;30.59;100436.69;5051714;28;20243;-74
2022/10/29 11:06:05;;;;;;;8.07;3.80;;;;;;;24.81;30.60;100435.03;5051608;28;20244;-72
2022/10/29 11:08:37;;;;;;;3.33;3.13;;;;;;;24.92;32.10;100425.81;5051477;28;20253;-72
2022/10/29 11:11:09;;;;;;;6.60;3.00;;;;;;;25.14;30.90;100422.09;5051314;28;20776;-73
2022/10/29 11:13:41;;;;;;;3.53;3.23;;;;;;;25.33;30.81;100417.78;5063292;28;20198;-74
2022/10/29 11:16:15;;;;;;;5.57;2.83;;;;;;;25.45;31.31;100408.28;5071710;28;20698;-76
2022/10/29 11:18:48;;;;;;;3.27;3.00;;;;;;;25.56;30.19;100417.28;5071786;28;20196;-74
2022/10/29 11:21:21;;;;;;;5.57;3.43;;;;;;;25.55;30.12;100407.50;5071979;28;20248;-77
2022/10/29 11:23:56;;;;;;;4.38;3.55;;;;;;;25.69;30.52;100403.97;5071280;28;20484;-68
2022/10/29 11:26:31;;;;;;;8.73;2.77;;;;;;;25.92;29.93;100403.38;5071452;28;20213;-67
2022/10/29 11:29:12;;;;;;;3.13;2.83;;;;;;;25.99;29.92;100406.69;5071319;28;20221;-66
2022/10/29 11:31:47;;;;;;;3.40;2.80;;;;;;;25.86;29.40;100385.44;5071418;28;20716;-67